createdAt,value
2019-03-26T00:00:03.163Z,93456.90
2019-03-26T00:02:32.014Z,93460.80
2019-03-26T00:05:00.932Z,93463.98
2019-03-26T00:07:29.795Z,93467.00
2019-03-26T00:09:59.493Z,93478.27
2019-03-26T00:12:28.415Z,93478.16
2019-03-26T00:14:57.283Z,93486.94
2019-03-26T00:17:26.149Z,93491.71
2019-03-26T00:19:55.071Z,93497.47
2019-03-26T00:22:23.939Z,93493.24
2019-03-26T00:24:52.807Z,93503.54
2019-03-26T00:27:21.736Z,93511.60
2019-03-26T00:29:50.590Z,93508.42
2019-03-26T00:32:19.442Z,93506.18
2019-03-26T00:34:48.378Z,93510.59
2019-03-26T00:37:17.252Z,93515.87
2019-03-26T00:39:46.119Z,93517.16
2019-03-26T00:42:15.036Z,93527.12
2019-03-26T00:44:43.879Z,93528.46
2019-03-26T00:47:12.744Z,93524.73
2019-03-26T00:49:41.668Z,93526.45
2019-03-26T00:52:10.523Z,93531.03
2019-03-26T00:54:39.380Z,93531.48
2019-03-26T00:57:08.313Z,93533.30
2019-03-26T00:59:37.169Z,93535.06
2019-03-26T01:02:06.131Z,93541.45
2019-03-26T01:04:35.154Z,93542.81
2019-03-26T01:07:04.111Z,93548.64
2019-03-26T01:09:32.969Z,93547.17
2019-03-26T01:12:01.908Z,93552.48
2019-03-26T01:14:30.761Z,93548.21
2019-03-26T01:16:59.621Z,93551.96
2019-03-26T01:19:28.547Z,93555.72
2019-03-26T01:21:57.420Z,93560.97
2019-03-26T01:24:26.281Z,93564.47
2019-03-26T01:26:55.305Z,93562.28
2019-03-26T01:29:24.168Z,93557.72
2019-03-26T01:31:53.024Z,93565.38
2019-03-26T01:34:21.940Z,93556.78
2019-03-26T01:36:50.815Z,93565.84
2019-03-26T01:39:19.692Z,93566.77
2019-03-26T01:41:48.608Z,93571.42
2019-03-26T01:44:17.460Z,93569.48
2019-03-26T01:46:46.337Z,93573.05
2019-03-26T01:49:15.247Z,93580.30
2019-03-26T01:51:44.103Z,93581.33
2019-03-26T01:54:13.067Z,93584.92
2019-03-26T01:56:41.979Z,93590.84
2019-03-26T01:59:10.838Z,93591.20
2019-03-26T02:01:39.702Z,93593.81
2019-03-26T02:04:08.617Z,93596.41
2019-03-26T02:06:37.469Z,93603.23
2019-03-26T02:09:06.931Z,93601.54
2019-03-26T02:11:35.873Z,93603.64
2019-03-26T02:14:04.580Z,93607.52
2019-03-26T02:16:33.289Z,93609.60
2019-03-26T02:19:01.980Z,93617.19
2019-03-26T02:21:30.603Z,93620.02
2019-03-26T02:23:59.230Z,93621.52
2019-03-26T02:26:27.887Z,93626.47
2019-03-26T02:28:56.516Z,93623.22
2019-03-26T02:31:25.149Z,93626.30
2019-03-26T02:33:53.819Z,93624.73
2019-03-26T02:36:22.440Z,93634.02
2019-03-26T02:38:51.055Z,93636.08
2019-03-26T02:41:19.711Z,93640.69
2019-03-26T02:43:48.346Z,93636.61
2019-03-26T02:46:16.963Z,93641.73
2019-03-26T02:48:45.630Z,93647.91
2019-03-26T02:51:14.260Z,93655.48
2019-03-26T02:53:42.894Z,93662.73
2019-03-26T02:56:11.553Z,93667.31
2019-03-26T02:58:40.179Z,93666.28
2019-03-26T03:01:08.797Z,93673.88
2019-03-26T03:03:37.470Z,93682.33
2019-03-26T03:06:06.089Z,93686.77
2019-03-26T03:08:34.721Z,93696.62
2019-03-26T03:11:03.626Z,93703.22
2019-03-26T03:13:32.252Z,93703.22
2019-03-26T03:16:00.871Z,93709.94
2019-03-26T03:18:29.529Z,93720.74
2019-03-26T03:20:58.156Z,93720.74
2019-03-26T03:23:26.775Z,93732.09
2019-03-26T03:25:55.462Z,93732.09
2019-03-26T03:28:24.088Z,93733.39
2019-03-26T03:30:52.739Z,93733.39
2019-03-26T03:33:21.377Z,93749.24
2019-03-26T03:35:52.575Z,93748.20
2019-03-26T03:38:20.345Z,93748.20
2019-03-26T03:40:48.997Z,93766.51
2019-03-26T03:43:17.640Z,93771.42
2019-03-26T03:45:46.545Z,93769.67
2019-03-26T03:48:15.199Z,93777.16
2019-03-26T03:50:44.815Z,93783.81
2019-03-26T03:53:16.748Z,93788.06
2019-03-26T03:55:45.608Z,93793.98
2019-03-26T03:58:16.129Z,93793.62
2019-03-26T04:00:44.765Z,93795.70
2019-03-26T04:03:13.525Z,93809.07
2019-03-26T04:05:42.150Z,93807.16
2019-03-26T04:08:10.763Z,93810.59
2019-03-26T04:10:39.480Z,93819.67
2019-03-26T04:13:08.321Z,93822.55
2019-03-26T04:15:37.033Z,93828.00
2019-03-26T04:18:05.684Z,93833.66
2019-03-26T04:20:34.487Z,93835.83
2019-03-26T04:23:03.100Z,93840.95
2019-03-26T04:25:31.771Z,93848.25
2019-03-26T04:28:00.400Z,93845.80
2019-03-26T04:30:30.219Z,93849.16
2019-03-26T04:32:58.876Z,93845.34
2019-03-26T04:35:27.510Z,93858.05
2019-03-26T04:37:56.225Z,93853.81
2019-03-26T04:40:24.877Z,93862.11
2019-03-26T04:42:53.496Z,93872.16
2019-03-26T04:45:22.129Z,93872.16
2019-03-26T04:47:50.791Z,93878.39
2019-03-26T04:50:19.433Z,93879.27
2019-03-26T04:52:48.050Z,93883.09
2019-03-26T04:55:16.701Z,93898.58
2019-03-26T04:57:45.329Z,93893.48
2019-03-26T05:00:14.359Z,93896.56
2019-03-26T05:02:43.030Z,93897.03
2019-03-26T05:05:12.525Z,93900.70
2019-03-26T05:07:41.271Z,93901.84
2019-03-26T05:10:10.041Z,93908.66
2019-03-26T05:12:38.671Z,93911.44
2019-03-26T05:15:07.395Z,93915.45
2019-03-26T05:17:36.061Z,93919.92
2019-03-26T05:20:06.385Z,93914.78
2019-03-26T05:22:35.207Z,93913.42
2019-03-26T05:25:05.163Z,93919.20
2019-03-26T05:27:44.801Z,93926.18
2019-03-26T05:30:07.505Z,93919.20
2019-03-26T05:32:36.216Z,93924.28
2019-03-26T05:35:05.350Z,93933.54
2019-03-26T05:37:33.969Z,93926.18
2019-03-26T05:40:02.627Z,93930.03
2019-03-26T05:42:31.249Z,93919.84
2019-03-26T05:44:59.868Z,93930.34
2019-03-26T05:47:28.533Z,93931.69
2019-03-26T05:49:57.166Z,93928.81
2019-03-26T05:52:25.789Z,93929.73
2019-03-26T05:54:54.452Z,93929.84
2019-03-26T05:57:23.076Z,93926.20
2019-03-26T05:59:51.708Z,93934.98
2019-03-26T06:02:20.389Z,93934.98
2019-03-26T06:04:49.009Z,93927.73
2019-03-26T06:07:17.628Z,93925.97
2019-03-26T06:09:46.290Z,93920.45
2019-03-26T06:12:14.906Z,93927.08
2019-03-26T06:14:43.535Z,93930.30
2019-03-26T06:17:12.200Z,93931.16
2019-03-26T06:19:40.817Z,93926.00
2019-03-26T06:22:09.434Z,93935.86
2019-03-26T06:24:38.090Z,93939.06
2019-03-26T06:27:06.709Z,93942.45
2019-03-26T06:29:35.332Z,93938.81
2019-03-26T06:32:03.981Z,93942.51
2019-03-26T06:34:32.595Z,93933.95
2019-03-26T06:37:01.222Z,93936.95
2019-03-26T06:39:29.867Z,93936.17
2019-03-26T06:41:58.486Z,93938.27
2019-03-26T06:44:27.116Z,93943.00
2019-03-26T06:46:55.782Z,93949.79
2019-03-26T06:49:24.396Z,93939.92
2019-03-26T06:51:53.022Z,93946.23
2019-03-26T06:54:21.666Z,93946.23
2019-03-26T06:56:50.326Z,93952.45
2019-03-26T06:59:18.985Z,93954.14
2019-03-26T07:01:47.733Z,93952.16
2019-03-26T07:04:16.357Z,93951.59
2019-03-26T07:06:45.052Z,93951.59
2019-03-26T07:09:13.720Z,93944.52
2019-03-26T07:11:42.353Z,93944.52
2019-03-26T07:14:10.965Z,93952.64
2019-03-26T07:16:39.649Z,93890.54
2019-03-26T07:19:08.277Z,93950.24
2019-03-26T07:21:49.150Z,93958.09
2019-03-26T07:24:07.390Z,93955.73
2019-03-26T07:26:36.015Z,93953.20
2019-03-26T07:29:04.648Z,93953.81
2019-03-26T07:31:33.312Z,93960.42
2019-03-26T07:34:01.931Z,93950.80
2019-03-26T07:36:30.557Z,93950.80
2019-03-26T07:38:59.213Z,93963.00
2019-03-26T07:41:27.827Z,93971.13
2019-03-26T07:43:56.462Z,93975.94
2019-03-26T07:46:25.110Z,93967.49
2019-03-26T07:48:53.805Z,93974.16
2019-03-26T07:51:22.430Z,93967.28
2019-03-26T07:53:51.087Z,93967.40
2019-03-26T07:56:19.706Z,93975.42
2019-03-26T07:58:48.330Z,93977.38
2019-03-26T08:01:17.007Z,93979.87
2019-03-26T08:03:45.608Z,93988.06
2019-03-26T08:06:14.235Z,93985.06
2019-03-26T08:08:42.893Z,93987.28
2019-03-26T08:11:11.523Z,93978.44
2019-03-26T08:13:41.110Z,93979.34
2019-03-26T08:16:09.776Z,93983.22
2019-03-26T08:18:38.401Z,93985.73
2019-03-26T08:21:07.014Z,93988.73
2019-03-26T08:23:38.339Z,93984.65
2019-03-26T08:26:06.028Z,93989.95
2019-03-26T08:28:34.720Z,93984.78
2019-03-26T08:31:03.396Z,93991.52
2019-03-26T08:33:32.025Z,93995.44
2019-03-26T08:36:00.662Z,93997.27
2019-03-26T08:38:29.316Z,94006.44
2019-03-26T08:40:57.940Z,94004.08
2019-03-26T08:43:26.557Z,94004.17
2019-03-26T08:45:55.216Z,94005.12
2019-03-26T08:48:23.841Z,94006.36
2019-03-26T08:50:52.532Z,94007.12
2019-03-26T08:53:21.203Z,94008.03
2019-03-26T08:55:49.858Z,94008.03
2019-03-26T08:58:18.461Z,94004.56
2019-03-26T09:00:47.124Z,94013.42
2019-03-26T09:03:15.750Z,94005.27
2019-03-26T09:05:44.379Z,94001.07
2019-03-26T09:08:24.831Z,94003.44
2019-03-26T09:10:51.777Z,94004.61
2019-03-26T09:13:13.795Z,93990.98
2019-03-26T09:15:42.477Z,93996.50
2019-03-26T09:18:11.129Z,94002.97
2019-03-26T09:20:39.807Z,94003.36
2019-03-26T09:23:08.467Z,94000.55
2019-03-26T09:25:37.115Z,93999.95
2019-03-26T09:28:05.733Z,94007.31
2019-03-26T09:30:34.393Z,94003.06
2019-03-26T09:33:03.034Z,94001.16
2019-03-26T09:35:31.683Z,94005.30
2019-03-26T09:38:00.351Z,94009.72
2019-03-26T09:40:28.991Z,94015.53
2019-03-26T09:42:57.617Z,94018.10
2019-03-26T09:45:26.301Z,94006.06
2019-03-26T09:47:54.913Z,94008.81
2019-03-26T09:50:36.294Z,94016.73
2019-03-26T09:53:05.228Z,94013.38
2019-03-26T09:55:33.853Z,94010.34
2019-03-26T09:58:02.581Z,94006.88
2019-03-26T10:00:31.326Z,94017.30
2019-03-26T10:03:00.009Z,94025.00
2019-03-26T10:05:28.668Z,94025.66
2019-03-26T10:07:57.286Z,94034.53
2019-03-26T10:10:25.920Z,94028.17
2019-03-26T10:12:54.575Z,94028.95
2019-03-26T10:15:23.202Z,94028.48
2019-03-26T10:17:51.824Z,94037.67
2019-03-26T10:20:20.491Z,94034.57
2019-03-26T10:22:49.115Z,94029.84
2019-03-26T10:25:17.737Z,94031.66
2019-03-26T10:27:46.396Z,94031.30
2019-03-26T10:30:17.927Z,94036.65
2019-03-26T10:32:46.569Z,94033.14
2019-03-26T10:35:15.226Z,94040.02
2019-03-26T10:37:43.849Z,94034.36
2019-03-26T10:40:15.384Z,94043.05
2019-03-26T10:42:44.047Z,94039.84
2019-03-26T10:45:12.876Z,94036.95
2019-03-26T10:47:41.502Z,94043.63
2019-03-26T10:50:10.262Z,94040.32
2019-03-26T10:52:38.889Z,94035.53
2019-03-26T10:55:07.612Z,94045.09
2019-03-26T10:57:36.384Z,94041.06
2019-03-26T11:00:08.030Z,94041.37
2019-03-26T11:02:36.734Z,94035.19
2019-03-26T11:05:06.807Z,94042.99
2019-03-26T11:07:35.425Z,94040.89
2019-03-26T11:10:07.445Z,94043.97
2019-03-26T11:12:36.103Z,94037.92
2019-03-26T11:15:11.590Z,94046.02
2019-03-26T11:17:40.217Z,94031.05
2019-03-26T11:20:09.361Z,94030.22
2019-03-26T11:22:37.976Z,94033.78
2019-03-26T11:25:08.504Z,94027.48
2019-03-26T11:27:37.165Z,94033.72
2019-03-26T11:30:07.203Z,94033.15
2019-03-26T11:32:35.828Z,94038.18
2019-03-26T11:35:06.395Z,94032.80
2019-03-26T11:37:35.020Z,94035.47
2019-03-26T11:40:04.145Z,94037.16
2019-03-26T11:42:32.806Z,94033.87
2019-03-26T11:45:01.437Z,94038.18
2019-03-26T11:47:30.056Z,94035.02
2019-03-26T11:49:58.718Z,94034.38
2019-03-26T11:52:27.345Z,94032.31
2019-03-26T11:54:55.972Z,94032.91
2019-03-26T11:57:24.633Z,94031.08
2019-03-26T11:59:53.263Z,94032.48
2019-03-26T12:02:22.045Z,94027.14
2019-03-26T12:04:50.811Z,94035.80
2019-03-26T12:07:19.440Z,94034.83
2019-03-26T12:09:48.076Z,94033.45
2019-03-26T12:12:16.740Z,94038.23
2019-03-26T12:14:45.370Z,94037.97
2019-03-26T12:17:15.031Z,94041.86
2019-03-26T12:19:43.841Z,94036.52
2019-03-26T12:22:12.477Z,94041.52
2019-03-26T12:24:41.103Z,94041.81
2019-03-26T12:27:09.763Z,94035.77
2019-03-26T12:29:38.395Z,94035.65
2019-03-26T12:32:07.041Z,94034.43
2019-03-26T12:34:35.701Z,94034.00
2019-03-26T12:37:04.326Z,94044.69
2019-03-26T12:39:32.956Z,94047.87
2019-03-26T12:42:01.625Z,94046.22
2019-03-26T12:44:30.305Z,94045.81
2019-03-26T12:46:58.978Z,94049.07
2019-03-26T12:49:27.651Z,94045.82
2019-03-26T12:51:56.411Z,94047.53
2019-03-26T12:54:25.060Z,94044.86
2019-03-26T12:56:53.742Z,94042.02
2019-03-26T12:59:22.369Z,94045.38
2019-03-26T13:01:50.995Z,94041.86
2019-03-26T13:04:19.647Z,94037.11
2019-03-26T13:06:48.281Z,94034.97
2019-03-26T13:09:16.916Z,94035.67
2019-03-26T13:11:45.646Z,94031.23
2019-03-26T13:14:14.271Z,94030.33
2019-03-26T13:16:42.912Z,94034.84
2019-03-26T13:19:11.574Z,94032.56
2019-03-26T13:21:40.203Z,94035.78
2019-03-26T13:24:11.290Z,94033.75
2019-03-26T13:26:39.258Z,94032.59
2019-03-26T13:29:07.884Z,94036.03
2019-03-26T13:31:36.526Z,94031.23
2019-03-26T13:34:05.197Z,94038.78
2019-03-26T13:36:33.827Z,94041.68
2019-03-26T13:39:02.447Z,94043.40
2019-03-26T13:41:31.114Z,94046.67
2019-03-26T13:43:59.747Z,94049.85
2019-03-26T13:46:28.378Z,94057.91
2019-03-26T13:48:57.958Z,94049.36
2019-03-26T13:51:26.592Z,94044.59
2019-03-26T13:53:55.221Z,94053.88
2019-03-26T13:56:23.885Z,94062.83
2019-03-26T13:58:52.510Z,94059.78
2019-03-26T14:01:21.144Z,94050.28
2019-03-26T14:03:50.006Z,94045.81
2019-03-26T14:06:18.649Z,94054.13
2019-03-26T14:08:47.285Z,94059.14
2019-03-26T14:11:15.958Z,94060.16
2019-03-26T14:13:44.584Z,94070.77
2019-03-26T14:16:13.203Z,94062.33
2019-03-26T14:18:41.879Z,94061.77
2019-03-26T14:21:10.598Z,94068.75
2019-03-26T14:23:39.225Z,94066.14
2019-03-26T14:26:07.890Z,94068.49
2019-03-26T14:28:36.547Z,94062.50
2019-03-26T14:31:05.215Z,94061.75
2019-03-26T14:33:33.884Z,94055.25
2019-03-26T14:36:03.093Z,94061.72
2019-03-26T14:38:31.722Z,94059.45
2019-03-26T14:41:00.392Z,94057.45
2019-03-26T14:43:29.094Z,94066.55
2019-03-26T14:45:57.753Z,94063.21
2019-03-26T14:48:26.415Z,94059.21
2019-03-26T14:50:55.034Z,94061.36
2019-03-26T14:53:23.657Z,94059.75
2019-03-26T14:55:52.394Z,94058.38
2019-03-26T14:58:21.036Z,94059.08
2019-03-26T15:00:49.670Z,94066.88
2019-03-26T15:03:18.355Z,94069.59
2019-03-26T15:05:46.972Z,94074.38
2019-03-26T15:08:15.604Z,94074.64
2019-03-26T15:10:44.279Z,94074.36
2019-03-26T15:13:12.907Z,94077.55
2019-03-26T15:15:41.534Z,94077.35
2019-03-26T15:18:10.207Z,94078.31
2019-03-26T15:20:38.828Z,94086.27
2019-03-26T15:23:07.453Z,94097.70
2019-03-26T15:25:36.106Z,94098.97
2019-03-26T15:28:04.730Z,94104.92
2019-03-26T15:30:33.355Z,94098.66
2019-03-26T15:33:02.095Z,94106.53
2019-03-26T15:35:30.714Z,94104.48
2019-03-26T15:37:59.350Z,94102.26
2019-03-26T15:40:28.074Z,94109.81
2019-03-26T15:42:56.701Z,94115.63
2019-03-26T15:45:25.338Z,94111.63
2019-03-26T15:47:54.016Z,94120.45
2019-03-26T15:50:36.743Z,94128.42
2019-03-26T15:53:05.496Z,94118.09
2019-03-26T15:55:34.127Z,94121.58
2019-03-26T15:58:02.759Z,94126.97
2019-03-26T16:00:31.422Z,94122.47
2019-03-26T16:03:00.060Z,94128.55
2019-03-26T16:05:28.689Z,94136.74
2019-03-26T16:08:00.421Z,94134.41
2019-03-26T16:10:27.776Z,94143.22
2019-03-26T16:12:56.400Z,94139.77
2019-03-26T16:15:25.055Z,94142.59
2019-03-26T16:17:53.676Z,94153.34
2019-03-26T16:20:22.306Z,94147.77
2019-03-26T16:22:50.962Z,94143.48
2019-03-26T16:25:19.590Z,94145.12
2019-03-26T16:27:48.208Z,94148.13
2019-03-26T16:30:17.968Z,94153.80
2019-03-26T16:32:46.663Z,94160.14
2019-03-26T16:35:15.297Z,94156.45
2019-03-26T16:37:43.945Z,94159.21
2019-03-26T16:40:12.572Z,94162.99
2019-03-26T16:42:41.207Z,94172.67
2019-03-26T16:45:09.868Z,94167.77
2019-03-26T16:47:38.487Z,94175.17
2019-03-26T16:50:08.521Z,94176.22
2019-03-26T16:52:37.185Z,94178.34
2019-03-26T16:55:06.806Z,94177.32
2019-03-26T16:57:35.429Z,94181.84
2019-03-26T17:00:05.321Z,94196.34
2019-03-26T17:02:33.947Z,94191.78
2019-03-26T17:05:02.577Z,94192.70
2019-03-26T17:07:31.228Z,94192.45
2019-03-26T17:09:59.858Z,94197.12
2019-03-26T17:12:28.482Z,94193.83
2019-03-26T17:14:57.144Z,94200.95
2019-03-26T17:17:25.773Z,94205.92
2019-03-26T17:19:57.402Z,94206.28
2019-03-26T17:22:26.629Z,94207.89
2019-03-26T17:24:55.261Z,94207.06
2019-03-26T17:27:23.895Z,94210.72
2019-03-26T17:29:52.635Z,94215.08
2019-03-26T17:32:21.273Z,94216.83
2019-03-26T17:34:49.915Z,94219.38
2019-03-26T17:37:18.591Z,94230.18
2019-03-26T17:39:47.293Z,94227.86
2019-03-26T17:42:17.419Z,94231.34
2019-03-26T17:44:46.365Z,94236.95
2019-03-26T17:47:14.989Z,94232.95
2019-03-26T17:49:43.634Z,94240.21
2019-03-26T17:52:12.301Z,94246.06
2019-03-26T17:54:40.935Z,94249.20
2019-03-26T17:57:09.566Z,94253.57
2019-03-26T17:59:38.230Z,94249.84
2019-03-26T18:02:06.935Z,94259.33
2019-03-26T18:04:35.767Z,94260.17
2019-03-26T18:07:05.643Z,94257.74
2019-03-26T18:09:34.352Z,94270.48
2019-03-26T18:12:02.981Z,94267.89
2019-03-26T18:14:31.651Z,94269.94
2019-03-26T18:17:00.355Z,94270.42
2019-03-26T18:19:29.060Z,94279.69
2019-03-26T18:21:57.733Z,94281.12
2019-03-26T18:24:26.370Z,94287.37
2019-03-26T18:26:57.996Z,94286.92
2019-03-26T18:29:26.677Z,94292.27
2019-03-26T18:31:55.305Z,94298.16
2019-03-26T18:34:24.019Z,94301.14
2019-03-26T18:36:52.714Z,94300.39
2019-03-26T18:39:21.403Z,94296.23
2019-03-26T18:41:50.032Z,94302.69
2019-03-26T18:44:19.663Z,94306.36
2019-03-26T18:46:48.311Z,94305.48
2019-03-26T18:49:16.917Z,94303.73
2019-03-26T18:51:45.590Z,94302.81
2019-03-26T18:54:14.223Z,94304.03
2019-03-26T18:56:42.921Z,94313.40
2019-03-26T18:59:11.598Z,94312.98
2019-03-26T19:01:40.226Z,94311.53
2019-03-26T19:04:08.855Z,94315.78
2019-03-26T19:06:37.590Z,94310.11
2019-03-26T19:09:06.593Z,94312.84
2019-03-26T19:11:35.230Z,94319.72
2019-03-26T19:14:04.027Z,94321.39
2019-03-26T19:16:32.735Z,94322.00
2019-03-26T19:19:01.364Z,94320.41
2019-03-26T19:21:30.032Z,94322.14
2019-03-26T19:24:04.633Z,94321.30
2019-03-26T19:26:29.087Z,94330.78
2019-03-26T19:28:57.827Z,94326.87
2019-03-26T19:31:26.530Z,94330.13
2019-03-26T19:33:55.153Z,94341.92
2019-03-26T19:36:23.837Z,94339.68
2019-03-26T19:38:52.476Z,94341.34
2019-03-26T19:41:21.121Z,94340.38
2019-03-26T19:43:49.808Z,94343.52
2019-03-26T19:46:18.517Z,94338.08
2019-03-26T19:48:47.153Z,94344.03
2019-03-26T19:51:15.822Z,94344.92
2019-03-26T19:53:44.553Z,94350.42
2019-03-26T19:56:13.172Z,94354.17
2019-03-26T19:58:41.831Z,94358.73
2019-03-26T20:01:10.467Z,94363.80
2019-03-26T20:03:39.161Z,94358.05
2019-03-26T20:06:13.547Z,94363.48
2019-03-26T20:08:38.331Z,94373.25
2019-03-26T20:11:06.964Z,94369.25
2019-03-26T20:13:35.712Z,94377.56
2019-03-26T20:16:04.338Z,94374.89
2019-03-26T20:18:32.957Z,94368.37
2019-03-26T20:21:01.697Z,94382.86
2019-03-26T20:23:30.325Z,94382.86
2019-03-26T20:25:58.952Z,94376.33
2019-03-26T20:28:27.633Z,94388.03
2019-03-26T20:30:56.259Z,94389.01
2019-03-26T20:33:24.878Z,94390.72
2019-03-26T20:35:53.614Z,94394.62
2019-03-26T20:38:23.886Z,94392.98
2019-03-26T20:40:52.575Z,94398.83
2019-03-26T20:43:21.266Z,94388.73
2019-03-26T20:45:49.894Z,94398.48
2019-03-26T20:48:18.596Z,94395.84
2019-03-26T20:50:47.264Z,94398.63
2019-03-26T20:53:15.893Z,94396.59
2019-03-26T20:55:54.150Z,94394.13
2019-03-26T20:58:14.912Z,94395.45
2019-03-26T21:00:43.715Z,94401.09
2019-03-26T21:03:12.337Z,94398.55
2019-03-26T21:05:41.003Z,94406.42
2019-03-26T21:08:09.634Z,94411.75
2019-03-26T21:10:38.382Z,94416.47
2019-03-26T21:13:07.076Z,94416.47
2019-03-26T21:15:35.689Z,94421.02
2019-03-26T21:18:04.421Z,94419.14
2019-03-26T21:20:33.077Z,94422.52
2019-03-26T21:23:01.702Z,94425.54
2019-03-26T21:25:30.396Z,94429.86
2019-03-26T21:27:59.055Z,94429.86
2019-03-26T21:30:27.674Z,94433.61
2019-03-26T21:32:56.365Z,94444.84
2019-03-26T21:35:28.579Z,94434.17
2019-03-26T21:37:55.455Z,94434.17
2019-03-26T21:40:24.082Z,94459.69
2019-03-26T21:42:52.786Z,94457.41
2019-03-26T21:45:35.287Z,94456.67
2019-03-26T21:48:05.443Z,94464.11
2019-03-26T21:50:34.168Z,94467.68
2019-03-26T21:53:02.785Z,94463.14
2019-03-26T21:55:31.432Z,94467.29
2019-03-26T21:58:00.056Z,94470.31
2019-03-26T22:00:28.754Z,94480.81
2019-03-26T22:02:57.415Z,94477.74
2019-03-26T22:05:26.042Z,94480.15
2019-03-26T22:07:54.668Z,94477.45
2019-03-26T22:10:23.309Z,94483.70
2019-03-26T22:12:51.950Z,94483.23
2019-03-26T22:15:20.574Z,94491.25
2019-03-26T22:17:49.232Z,94485.97
2019-03-26T22:20:17.859Z,94491.53
2019-03-26T22:22:46.528Z,94486.20
2019-03-26T22:25:15.916Z,94491.71
2019-03-26T22:27:44.529Z,94491.42
2019-03-26T22:30:14.895Z,94480.75
2019-03-26T22:32:43.561Z,94483.48
2019-03-26T22:35:12.277Z,94483.50
2019-03-26T22:37:40.897Z,94490.95
2019-03-26T22:40:10.549Z,94494.36
2019-03-26T22:42:39.178Z,94495.08
2019-03-26T22:45:09.600Z,94496.23
2019-03-26T22:47:40.960Z,94496.63
2019-03-26T22:50:10.680Z,94495.77
2019-03-26T22:52:39.376Z,94498.02
2019-03-26T22:55:09.524Z,94498.02
2019-03-26T22:57:38.643Z,94439.56
2019-03-26T23:00:20.802Z,94501.20
2019-03-26T23:02:49.424Z,94498.80
2019-03-26T23:05:18.617Z,94503.80
2019-03-26T23:07:47.260Z,94503.56
2019-03-26T23:10:17.541Z,94502.86
2019-03-26T23:12:46.332Z,94499.21
2019-03-26T23:15:24.123Z,94501.45
2019-03-26T23:17:52.855Z,94500.79
2019-03-26T23:20:21.484Z,94508.29
2019-03-26T23:22:50.132Z,94506.16
2019-03-26T23:25:18.747Z,94503.58
2019-03-26T23:27:47.362Z,94508.80
2019-03-26T23:30:16.516Z,94505.14
2019-03-26T23:32:45.149Z,94505.11
2019-03-26T23:35:13.857Z,94507.13
2019-03-26T23:37:42.712Z,94513.86
2019-03-26T23:40:12.528Z,94518.63
2019-03-26T23:42:41.164Z,94516.00
2019-03-26T23:45:11.027Z,94514.22
2019-03-26T23:47:39.649Z,94511.32
2019-03-26T23:50:09.671Z,94513.27
2019-03-26T23:52:38.312Z,94509.62
2019-03-26T23:55:08.432Z,94509.04
2019-03-26T23:57:37.674Z,94504.04
